sensor_id;sensor_type;location;lat;lon;timestamp;P1;durP1;ratioP1;P2;durP2;ratioP2
17369;SDS011;8802;52.402;4.920;2023-07-20T00:00:36;0.65;;;0.65;;
17369;SDS011;8802;52.402;4.920;2023-07-20T00:03:10;0.90;;;0.80;;
17369;SDS011;8802;52.402;4.920;2023-07-20T00:05:42;1.23;;;0.93;;
17369;SDS011;8802;52.402;4.920;2023-07-20T00:08:09;0.80;;;0.68;;
17369;SDS011;8802;52.402;4.920;2023-07-20T00:10:36;2.60;;;1.02;;
17369;SDS011;8802;52.402;4.920;2023-07-20T00:13:03;1.00;;;0.80;;
17369;SDS011;8802;52.402;4.920;2023-07-20T00:15:32;1.02;;;0.88;;
17369;SDS011;8802;52.402;4.920;2023-07-20T00:17:59;0.98;;;0.77;;
17369;SDS011;8802;52.402;4.920;2023-07-20T00:20:26;1.67;;;0.90;;
17369;SDS011;8802;52.402;4.920;2023-07-20T00:22:53;1.67;;;1.10;;
17369;SDS011;8802;52.402;4.920;2023-07-20T00:25:22;1.27;;;1.17;;
17369;SDS011;8802;52.402;4.920;2023-07-20T00:27:49;1.95;;;1.10;;
17369;SDS011;8802;52.402;4.920;2023-07-20T00:30:16;1.17;;;0.90;;
17369;SDS011;8802;52.402;4.920;2023-07-20T00:32:45;1.20;;;1.00;;
17369;SDS011;8802;52.402;4.920;2023-07-20T00:35:12;1.30;;;1.10;;
17369;SDS011;8802;52.402;4.920;2023-07-20T00:37:39;1.55;;;1.10;;
17369;SDS011;8802;52.402;4.920;2023-07-20T00:40:06;1.20;;;1.10;;
17369;SDS011;8802;52.402;4.920;2023-07-20T00:42:34;1.17;;;1.08;;
17369;SDS011;8802;52.402;4.920;2023-07-20T00:45:01;1.40;;;1.30;;
17369;SDS011;8802;52.402;4.920;2023-07-20T00:47:28;1.52;;;1.13;;
17369;SDS011;8802;52.402;4.920;2023-07-20T00:49:56;1.83;;;1.20;;
17369;SDS011;8802;52.402;4.920;2023-07-20T00:52:23;0.95;;;0.90;;
17369;SDS011;8802;52.402;4.920;2023-07-20T00:54:53;3.00;;;1.20;;
17369;SDS011;8802;52.402;4.920;2023-07-20T00:57:21;1.83;;;1.33;;
17369;SDS011;8802;52.402;4.920;2023-07-20T00:59:50;1.05;;;1.00;;
17369;SDS011;8802;52.402;4.920;2023-07-20T01:02:17;1.27;;;1.13;;
17369;SDS011;8802;52.402;4.920;2023-07-20T01:04:44;2.85;;;1.35;;
17369;SDS011;8802;52.402;4.920;2023-07-20T01:07:12;2.00;;;1.33;;
17369;SDS011;8802;52.402;4.920;2023-07-20T01:09:46;1.10;;;1.00;;
17369;SDS011;8802;52.402;4.920;2023-07-20T01:12:20;1.40;;;1.30;;
17369;SDS011;8802;52.402;4.920;2023-07-20T01:14:52;1.85;;;1.30;;
17369;SDS011;8802;52.402;4.920;2023-07-20T01:17:20;1.20;;;1.10;;
17369;SDS011;8802;52.402;4.920;2023-07-20T01:19:49;1.90;;;1.40;;
17369;SDS011;8802;52.402;4.920;2023-07-20T01:22:21;1.50;;;1.25;;
17369;SDS011;8802;52.402;4.920;2023-07-20T01:25:21;3.75;;;1.70;;
17369;SDS011;8802;52.402;4.920;2023-07-20T01:31:12;2.58;;;1.60;;
17369;SDS011;8802;52.402;4.920;2023-07-20T01:33:43;1.50;;;1.35;;
17369;SDS011;8802;52.402;4.920;2023-07-20T01:36:12;3.47;;;1.80;;
17369;SDS011;8802;52.402;4.920;2023-07-20T01:38:42;2.47;;;1.92;;
17369;SDS011;8802;52.402;4.920;2023-07-20T01:41:10;2.08;;;1.80;;
17369;SDS011;8802;52.402;4.920;2023-07-20T01:43:38;2.75;;;1.65;;
17369;SDS011;8802;52.402;4.920;2023-07-20T01:46:05;3.83;;;1.88;;
17369;SDS011;8802;52.402;4.920;2023-07-20T01:48:33;2.28;;;1.67;;
17369;SDS011;8802;52.402;4.920;2023-07-20T01:51:00;1.92;;;1.80;;
17369;SDS011;8802;52.402;4.920;2023-07-20T01:53:27;1.80;;;1.60;;
17369;SDS011;8802;52.402;4.920;2023-07-20T01:55:54;1.95;;;1.60;;
17369;SDS011;8802;52.402;4.920;2023-07-20T01:58:21;2.88;;;2.10;;
17369;SDS011;8802;52.402;4.920;2023-07-20T02:00:48;2.22;;;1.80;;
17369;SDS011;8802;52.402;4.920;2023-07-20T02:03:15;1.85;;;1.73;;
17369;SDS011;8802;52.402;4.920;2023-07-20T02:05:43;2.25;;;2.05;;
17369;SDS011;8802;52.402;4.920;2023-07-20T02:08:10;2.72;;;1.65;;
17369;SDS011;8802;52.402;4.920;2023-07-20T02:10:37;2.47;;;1.63;;
17369;SDS011;8802;52.402;4.920;2023-07-20T02:13:04;3.25;;;1.88;;
17369;SDS011;8802;52.402;4.920;2023-07-20T02:15:31;2.65;;;1.70;;
17369;SDS011;8802;52.402;4.920;2023-07-20T02:17:58;2.17;;;1.80;;
17369;SDS011;8802;52.402;4.920;2023-07-20T02:20:25;1.90;;;1.80;;
17369;SDS011;8802;52.402;4.920;2023-07-20T02:22:54;2.83;;;1.98;;
17369;SDS011;8802;52.402;4.920;2023-07-20T02:25:21;2.55;;;1.73;;
17369;SDS011;8802;52.402;4.920;2023-07-20T02:27:48;2.80;;;1.90;;
17369;SDS011;8802;52.402;4.920;2023-07-20T02:30:15;2.78;;;2.03;;
17369;SDS011;8802;52.402;4.920;2023-07-20T02:32:42;2.15;;;1.80;;
17369;SDS011;8802;52.402;4.920;2023-07-20T02:35:10;1.80;;;1.70;;
17369;SDS011;8802;52.402;4.920;2023-07-20T02:37:37;2.03;;;1.60;;
17369;SDS011;8802;52.402;4.920;2023-07-20T02:40:06;3.05;;;1.92;;
17369;SDS011;8802;52.402;4.920;2023-07-20T02:42:34;2.58;;;1.65;;
17369;SDS011;8802;52.402;4.920;2023-07-20T02:45:01;2.38;;;1.75;;
17369;SDS011;8802;52.402;4.920;2023-07-20T02:47:29;3.33;;;1.85;;
17369;SDS011;8802;52.402;4.920;2023-07-20T02:49:56;3.13;;;1.75;;
17369;SDS011;8802;52.402;4.920;2023-07-20T02:52:23;1.95;;;1.73;;
17369;SDS011;8802;52.402;4.920;2023-07-20T02:54:50;2.80;;;1.85;;
17369;SDS011;8802;52.402;4.920;2023-07-20T02:57:18;2.78;;;1.80;;
17369;SDS011;8802;52.402;4.920;2023-07-20T02:59:46;1.75;;;1.65;;
17369;SDS011;8802;52.402;4.920;2023-07-20T03:02:12;1.92;;;1.50;;
17369;SDS011;8802;52.402;4.920;2023-07-20T03:04:40;1.65;;;1.52;;
17369;SDS011;8802;52.402;4.920;2023-07-20T03:07:07;1.77;;;1.60;;
17369;SDS011;8802;52.402;4.920;2023-07-20T03:09:33;1.63;;;1.40;;
17369;SDS011;8802;52.402;4.920;2023-07-20T03:12:00;2.40;;;1.60;;
17369;SDS011;8802;52.402;4.920;2023-07-20T03:14:31;1.98;;;1.50;;
17369;SDS011;8802;52.402;4.920;2023-07-20T03:16:58;3.15;;;1.85;;
17369;SDS011;8802;52.402;4.920;2023-07-20T03:19:25;3.03;;;1.65;;
17369;SDS011;8802;52.402;4.920;2023-07-20T03:21:53;2.22;;;1.42;;
17369;SDS011;8802;52.402;4.920;2023-07-20T03:24:20;3.33;;;1.23;;
17369;SDS011;8802;52.402;4.920;2023-07-20T03:26:48;2.50;;;1.48;;
17369;SDS011;8802;52.402;4.920;2023-07-20T03:29:15;1.67;;;1.58;;
17369;SDS011;8802;52.402;4.920;2023-07-20T03:31:43;2.53;;;1.45;;
17369;SDS011;8802;52.402;4.920;2023-07-20T03:34:10;1.85;;;1.33;;
17369;SDS011;8802;52.402;4.920;2023-07-20T03:36:37;1.33;;;1.20;;
17369;SDS011;8802;52.402;4.920;2023-07-20T03:39:04;2.78;;;1.55;;
17369;SDS011;8802;52.402;4.920;2023-07-20T03:41:31;3.88;;;1.70;;
17369;SDS011;8802;52.402;4.920;2023-07-20T03:43:58;2.30;;;1.50;;
17369;SDS011;8802;52.402;4.920;2023-07-20T03:46:25;1.67;;;1.52;;
17369;SDS011;8802;52.402;4.920;2023-07-20T03:48:54;2.78;;;1.30;;
17369;SDS011;8802;52.402;4.920;2023-07-20T03:51:21;1.60;;;1.25;;
17369;SDS011;8802;52.402;4.920;2023-07-20T03:53:48;2.20;;;1.55;;
17369;SDS011;8802;52.402;4.920;2023-07-20T03:56:14;2.72;;;1.38;;
17369;SDS011;8802;52.402;4.920;2023-07-20T03:58:41;2.00;;;1.25;;
17369;SDS011;8802;52.402;4.920;2023-07-20T04:01:08;2.33;;;1.50;;
17369;SDS011;8802;52.402;4.920;2023-07-20T04:03:35;1.42;;;1.23;;
17369;SDS011;8802;52.402;4.920;2023-07-20T04:06:04;2.33;;;1.23;;
17369;SDS011;8802;52.402;4.920;2023-07-20T04:08:31;2.85;;;1.45;;
17369;SDS011;8802;52.402;4.920;2023-07-20T04:10:58;1.63;;;1.30;;
17369;SDS011;8802;52.402;4.920;2023-07-20T04:13:27;1.50;;;1.25;;
17369;SDS011;8802;52.402;4.920;2023-07-20T04:15:58;1.40;;;1.30;;
17369;SDS011;8802;52.402;4.920;2023-07-20T04:18:25;2.10;;;1.25;;
17369;SDS011;8802;52.402;4.920;2023-07-20T04:20:52;1.20;;;1.10;;
17369;SDS011;8802;52.402;4.920;2023-07-20T04:23:20;1.63;;;1.30;;
17369;SDS011;8802;52.402;4.920;2023-07-20T04:25:47;1.75;;;1.60;;
17369;SDS011;8802;52.402;4.920;2023-07-20T04:28:14;2.30;;;1.60;;
17369;SDS011;8802;52.402;4.920;2023-07-20T04:30:42;1.90;;;1.20;;
17369;SDS011;8802;52.402;4.920;2023-07-20T04:33:09;2.53;;;1.27;;
17369;SDS011;8802;52.402;4.920;2023-07-20T04:35:45;1.65;;;1.55;;
17369;SDS011;8802;52.402;4.920;2023-07-20T04:38:14;1.55;;;1.20;;
17369;SDS011;8802;52.402;4.920;2023-07-20T04:40:44;1.80;;;1.23;;
17369;SDS011;8802;52.402;4.920;2023-07-20T04:43:11;1.65;;;1.52;;
17369;SDS011;8802;52.402;4.920;2023-07-20T04:45:38;1.55;;;1.25;;
17369;SDS011;8802;52.402;4.920;2023-07-20T04:48:06;2.03;;;1.70;;
17369;SDS011;8802;52.402;4.920;2023-07-20T04:50:35;3.70;;;1.40;;
17369;SDS011;8802;52.402;4.920;2023-07-20T04:53:02;1.55;;;1.30;;
17369;SDS011;8802;52.402;4.920;2023-07-20T04:55:30;1.15;;;1.02;;
17369;SDS011;8802;52.402;4.920;2023-07-20T04:58:00;2.67;;;1.30;;
17369;SDS011;8802;52.402;4.920;2023-07-20T05:00:27;1.30;;;1.00;;
17369;SDS011;8802;52.402;4.920;2023-07-20T05:02:54;2.17;;;1.33;;
17369;SDS011;8802;52.402;4.920;2023-07-20T05:05:21;2.72;;;1.15;;
17369;SDS011;8802;52.402;4.920;2023-07-20T05:07:48;1.15;;;1.00;;
17369;SDS011;8802;52.402;4.920;2023-07-20T05:10:15;1.30;;;1.20;;
17369;SDS011;8802;52.402;4.920;2023-07-20T05:12:42;1.02;;;0.80;;
17369;SDS011;8802;52.402;4.920;2023-07-20T05:15:11;1.77;;;1.10;;
17369;SDS011;8802;52.402;4.920;2023-07-20T05:17:39;1.17;;;1.00;;
17369;SDS011;8802;52.402;4.920;2023-07-20T05:20:06;2.20;;;1.10;;
17369;SDS011;8802;52.402;4.920;2023-07-20T05:22:35;1.27;;;1.00;;
17369;SDS011;8802;52.402;4.920;2023-07-20T05:25:05;1.15;;;0.90;;
17369;SDS011;8802;52.402;4.920;2023-07-20T05:27:33;1.35;;;0.93;;
17369;SDS011;8802;52.402;4.920;2023-07-20T05:30:00;1.98;;;1.30;;
17369;SDS011;8802;52.402;4.920;2023-07-20T05:32:29;2.47;;;1.00;;
17369;SDS011;8802;52.402;4.920;2023-07-20T05:34:56;1.73;;;1.00;;
17369;SDS011;8802;52.402;4.920;2023-07-20T05:37:23;1.08;;;1.00;;
17369;SDS011;8802;52.402;4.920;2023-07-20T05:39:50;1.15;;;1.05;;
17369;SDS011;8802;52.402;4.920;2023-07-20T05:42:17;2.85;;;1.10;;
17369;SDS011;8802;52.402;4.920;2023-07-20T05:44:44;1.35;;;0.98;;
17369;SDS011;8802;52.402;4.920;2023-07-20T05:47:12;1.73;;;0.98;;
17369;SDS011;8802;52.402;4.920;2023-07-20T05:49:40;1.58;;;1.10;;
17369;SDS011;8802;52.402;4.920;2023-07-20T05:52:07;1.75;;;0.93;;
17369;SDS011;8802;52.402;4.920;2023-07-20T05:54:34;1.60;;;1.08;;
17369;SDS011;8802;52.402;4.920;2023-07-20T05:57:02;1.25;;;0.70;;
17369;SDS011;8802;52.402;4.920;2023-07-20T05:59:29;1.13;;;0.80;;
17369;SDS011;8802;52.402;4.920;2023-07-20T06:01:56;1.77;;;0.70;;
17369;SDS011;8802;52.402;4.920;2023-07-20T06:04:23;2.47;;;0.80;;
17369;SDS011;8802;52.402;4.920;2023-07-20T06:06:52;2.58;;;0.90;;
17369;SDS011;8802;52.402;4.920;2023-07-20T06:09:18;0.88;;;0.75;;
17369;SDS011;8802;52.402;4.920;2023-07-20T06:11:45;3.35;;;0.80;;
17369;SDS011;8802;52.402;4.920;2023-07-20T06:14:12;1.13;;;0.73;;
17369;SDS011;8802;52.402;4.920;2023-07-20T06:16:40;1.30;;;0.70;;
17369;SDS011;8802;52.402;4.920;2023-07-20T06:19:07;1.30;;;0.80;;
17369;SDS011;8802;52.402;4.920;2023-07-20T06:21:36;1.70;;;0.70;;
17369;SDS011;8802;52.402;4.920;2023-07-20T06:24:04;1.02;;;0.60;;
17369;SDS011;8802;52.402;4.920;2023-07-20T06:26:31;1.15;;;0.60;;
17369;SDS011;8802;52.402;4.920;2023-07-20T06:29:03;2.00;;;0.80;;
17369;SDS011;8802;52.402;4.920;2023-07-20T06:31:31;2.05;;;0.70;;
17369;SDS011;8802;52.402;4.920;2023-07-20T06:33:58;2.60;;;0.60;;
17369;SDS011;8802;52.402;4.920;2023-07-20T06:36:26;1.30;;;0.50;;
17369;SDS011;8802;52.402;4.920;2023-07-20T06:38:53;0.80;;;0.50;;
17369;SDS011;8802;52.402;4.920;2023-07-20T06:41:22;0.93;;;0.47;;
17369;SDS011;8802;52.402;4.920;2023-07-20T06:43:49;0.95;;;0.60;;
17369;SDS011;8802;52.402;4.920;2023-07-20T06:46:17;1.13;;;0.57;;
17369;SDS011;8802;52.402;4.920;2023-07-20T06:48:44;0.40;;;0.35;;
17369;SDS011;8802;52.402;4.920;2023-07-20T06:51:11;0.70;;;0.50;;
17369;SDS011;8802;52.402;4.920;2023-07-20T06:53:38;1.10;;;0.55;;
17369;SDS011;8802;52.402;4.920;2023-07-20T06:56:05;2.08;;;0.50;;
17369;SDS011;8802;52.402;4.920;2023-07-20T06:58:34;1.83;;;0.70;;
17369;SDS011;8802;52.402;4.920;2023-07-20T07:01:04;0.98;;;0.50;;
17369;SDS011;8802;52.402;4.920;2023-07-20T07:03:31;1.50;;;0.50;;
17369;SDS011;8802;52.402;4.920;2023-07-20T07:05:59;1.95;;;0.68;;
17369;SDS011;8802;52.402;4.920;2023-07-20T07:08:26;2.38;;;0.80;;
17369;SDS011;8802;52.402;4.920;2023-07-20T07:10:53;2.33;;;0.57;;
17369;SDS011;8802;52.402;4.920;2023-07-20T07:13:20;1.00;;;0.50;;
17369;SDS011;8802;52.402;4.920;2023-07-20T07:15:48;0.65;;;0.30;;
17369;SDS011;8802;52.402;4.920;2023-07-20T07:18:15;0.60;;;0.43;;
17369;SDS011;8802;52.402;4.920;2023-07-20T07:20:49;1.13;;;0.40;;
17369;SDS011;8802;52.402;4.920;2023-07-20T07:23:17;1.00;;;0.40;;
17369;SDS011;8802;52.402;4.920;2023-07-20T07:25:44;0.63;;;0.30;;
17369;SDS011;8802;52.402;4.920;2023-07-20T07:28:12;0.93;;;0.40;;
17369;SDS011;8802;52.402;4.920;2023-07-20T07:30:39;1.15;;;0.38;;
17369;SDS011;8802;52.402;4.920;2023-07-20T07:33:07;0.45;;;0.30;;
17369;SDS011;8802;52.402;4.920;2023-07-20T07:35:35;1.25;;;0.43;;
17369;SDS011;8802;52.402;4.920;2023-07-20T07:38:02;1.00;;;0.47;;
17369;SDS011;8802;52.402;4.920;2023-07-20T07:40:28;0.80;;;0.40;;
17369;SDS011;8802;52.402;4.920;2023-07-20T07:42:55;0.90;;;0.80;;
17369;SDS011;8802;52.402;4.920;2023-07-20T07:45:22;1.85;;;0.50;;
17369;SDS011;8802;52.402;4.920;2023-07-20T07:47:49;2.83;;;0.60;;
17369;SDS011;8802;52.402;4.920;2023-07-20T07:50:18;0.70;;;0.40;;
17369;SDS011;8802;52.402;4.920;2023-07-20T07:52:45;0.90;;;0.50;;
17369;SDS011;8802;52.402;4.920;2023-07-20T07:55:12;1.33;;;0.50;;
17369;SDS011;8802;52.402;4.920;2023-07-20T07:57:41;1.20;;;0.60;;
17369;SDS011;8802;52.402;4.920;2023-07-20T08:00:09;2.58;;;0.68;;
17369;SDS011;8802;52.402;4.920;2023-07-20T08:02:39;0.75;;;0.52;;
17369;SDS011;8802;52.402;4.920;2023-07-20T08:05:07;0.47;;;0.40;;
17369;SDS011;8802;52.402;4.920;2023-07-20T08:07:36;1.75;;;0.77;;
17369;SDS011;8802;52.402;4.920;2023-07-20T08:10:03;1.92;;;0.50;;
17369;SDS011;8802;52.402;4.920;2023-07-20T08:12:31;0.77;;;0.50;;
17369;SDS011;8802;52.402;4.920;2023-07-20T08:14:58;2.10;;;0.80;;
17369;SDS011;8802;52.402;4.920;2023-07-20T08:17:25;2.03;;;0.63;;
17369;SDS011;8802;52.402;4.920;2023-07-20T08:19:52;0.73;;;0.52;;
17369;SDS011;8802;52.402;4.920;2023-07-20T08:22:19;2.15;;;0.70;;
17369;SDS011;8802;52.402;4.920;2023-07-20T08:24:47;1.10;;;0.50;;
17369;SDS011;8802;52.402;4.920;2023-07-20T08:27:14;2.35;;;0.80;;
17369;SDS011;8802;52.402;4.920;2023-07-20T08:29:41;1.33;;;0.70;;
17369;SDS011;8802;52.402;4.920;2023-07-20T08:32:08;1.27;;;0.60;;
17369;SDS011;8802;52.402;4.920;2023-07-20T08:34:35;0.95;;;0.52;;
17369;SDS011;8802;52.402;4.920;2023-07-20T08:37:02;1.65;;;0.70;;
17369;SDS011;8802;52.402;4.920;2023-07-20T08:39:29;3.40;;;0.68;;
17369;SDS011;8802;52.402;4.920;2023-07-20T08:41:57;0.93;;;0.50;;
17369;SDS011;8802;52.402;4.920;2023-07-20T08:44:29;0.70;;;0.50;;
17369;SDS011;8802;52.402;4.920;2023-07-20T08:46:58;1.92;;;0.60;;
17369;SDS011;8802;52.402;4.920;2023-07-20T08:49:27;1.63;;;0.45;;
17369;SDS011;8802;52.402;4.920;2023-07-20T08:51:55;1.20;;;0.40;;
17369;SDS011;8802;52.402;4.920;2023-07-20T08:54:23;0.65;;;0.30;;
17369;SDS011;8802;52.402;4.920;2023-07-20T08:56:54;0.75;;;0.40;;
17369;SDS011;8802;52.402;4.920;2023-07-20T08:59:28;1.10;;;0.60;;
17369;SDS011;8802;52.402;4.920;2023-07-20T09:01:56;0.55;;;0.35;;
17369;SDS011;8802;52.402;4.920;2023-07-20T09:04:24;1.63;;;0.40;;
17369;SDS011;8802;52.402;4.920;2023-07-20T09:06:51;1.40;;;0.50;;
17369;SDS011;8802;52.402;4.920;2023-07-20T09:09:18;1.33;;;0.40;;
17369;SDS011;8802;52.402;4.920;2023-07-20T09:11:46;2.25;;;0.50;;
17369;SDS011;8802;52.402;4.920;2023-07-20T09:14:15;2.40;;;0.80;;
17369;SDS011;8802;52.402;4.920;2023-07-20T09:16:48;1.45;;;0.73;;
17369;SDS011;8802;52.402;4.920;2023-07-20T09:19:16;2.55;;;0.70;;
17369;SDS011;8802;52.402;4.920;2023-07-20T09:21:46;2.75;;;0.80;;
17369;SDS011;8802;52.402;4.920;2023-07-20T09:24:14;0.88;;;0.65;;
17369;SDS011;8802;52.402;4.920;2023-07-20T09:26:42;1.77;;;0.70;;
17369;SDS011;8802;52.402;4.920;2023-07-20T09:29:09;1.35;;;0.85;;
17369;SDS011;8802;52.402;4.920;2023-07-20T09:31:38;0.95;;;0.60;;
17369;SDS011;8802;52.402;4.920;2023-07-20T09:34:05;2.60;;;0.82;;
17369;SDS011;8802;52.402;4.920;2023-07-20T09:36:33;3.38;;;0.80;;
17369;SDS011;8802;52.402;4.920;2023-07-20T09:39:02;1.45;;;0.95;;
17369;SDS011;8802;52.402;4.920;2023-07-20T09:41:30;2.25;;;0.93;;
17369;SDS011;8802;52.402;4.920;2023-07-20T09:44:05;2.55;;;1.13;;
17369;SDS011;8802;52.402;4.920;2023-07-20T09:46:43;4.15;;;1.05;;
17369;SDS011;8802;52.402;4.920;2023-07-20T09:49:11;1.73;;;0.70;;
17369;SDS011;8802;52.402;4.920;2023-07-20T09:51:38;2.58;;;0.80;;
17369;SDS011;8802;52.402;4.920;2023-07-20T09:54:05;2.65;;;0.70;;
17369;SDS011;8802;52.402;4.920;2023-07-20T09:56:34;1.42;;;0.68;;
17369;SDS011;8802;52.402;4.920;2023-07-20T09:59:02;1.08;;;0.70;;
17369;SDS011;8802;52.402;4.920;2023-07-20T10:01:29;1.27;;;0.70;;
17369;SDS011;8802;52.402;4.920;2023-07-20T10:04:02;2.55;;;1.10;;
17369;SDS011;8802;52.402;4.920;2023-07-20T10:06:31;1.27;;;1.00;;
17369;SDS011;8802;52.402;4.920;2023-07-20T10:09:01;1.90;;;0.98;;
17369;SDS011;8802;52.402;4.920;2023-07-20T10:11:31;3.20;;;1.20;;
17369;SDS011;8802;52.402;4.920;2023-07-20T10:14:01;1.73;;;1.17;;
17369;SDS011;8802;52.402;4.920;2023-07-20T10:16:31;2.15;;;0.90;;
17369;SDS011;8802;52.402;4.920;2023-07-20T10:19:03;2.67;;;0.85;;
17369;SDS011;8802;52.402;4.920;2023-07-20T10:21:33;2.42;;;0.93;;
17369;SDS011;8802;52.402;4.920;2023-07-20T10:24:03;1.20;;;0.80;;
17369;SDS011;8802;52.402;4.920;2023-07-20T10:26:31;2.00;;;0.95;;
17369;SDS011;8802;52.402;4.920;2023-07-20T10:28:58;1.42;;;0.90;;
17369;SDS011;8802;52.402;4.920;2023-07-20T10:31:26;1.17;;;0.88;;
17369;SDS011;8802;52.402;4.920;2023-07-20T10:33:54;1.23;;;1.00;;
17369;SDS011;8802;52.402;4.920;2023-07-20T10:36:25;1.48;;;0.80;;
17369;SDS011;8802;52.402;4.920;2023-07-20T10:38:53;2.30;;;0.80;;
17369;SDS011;8802;52.402;4.920;2023-07-20T10:41:22;1.05;;;0.82;;
17369;SDS011;8802;52.402;4.920;2023-07-20T10:43:57;1.27;;;1.05;;
17369;SDS011;8802;52.402;4.920;2023-07-20T10:46:35;1.45;;;0.70;;
17369;SDS011;8802;52.402;4.920;2023-07-20T10:49:09;2.65;;;0.98;;
17369;SDS011;8802;52.402;4.920;2023-07-20T10:51:42;1.13;;;0.60;;
17369;SDS011;8802;52.402;4.920;2023-07-20T10:54:12;2.35;;;0.90;;
17369;SDS011;8802;52.402;4.920;2023-07-20T10:59:50;2.92;;;0.75;;
17369;SDS011;8802;52.402;4.920;2023-07-20T11:02:18;1.45;;;0.80;;
17369;SDS011;8802;52.402;4.920;2023-07-20T11:04:46;1.45;;;0.65;;
17369;SDS011;8802;52.402;4.920;2023-07-20T11:10:13;1.85;;;0.77;;
17369;SDS011;8802;52.402;4.920;2023-07-20T11:12:41;1.48;;;0.70;;
17369;SDS011;8802;52.402;4.920;2023-07-20T11:15:31;3.78;;;0.77;;
17369;SDS011;8802;52.402;4.920;2023-07-20T11:18:11;1.33;;;0.70;;
17369;SDS011;8802;52.402;4.920;2023-07-20T11:20:39;0.98;;;0.70;;
17369;SDS011;8802;52.402;4.920;2023-07-20T11:23:08;1.92;;;0.60;;
17369;SDS011;8802;52.402;4.920;2023-07-20T11:25:38;0.88;;;0.50;;
17369;SDS011;8802;52.402;4.920;2023-07-20T11:28:06;1.88;;;0.80;;
17369;SDS011;8802;52.402;4.920;2023-07-20T11:30:35;1.27;;;0.70;;
17369;SDS011;8802;52.402;4.920;2023-07-20T11:33:03;4.25;;;0.77;;
17369;SDS011;8802;52.402;4.920;2023-07-20T11:35:30;2.30;;;1.10;;
17369;SDS011;8802;52.402;4.920;2023-07-20T11:38:01;1.23;;;0.70;;
17369;SDS011;8802;52.402;4.920;2023-07-20T11:40:30;1.60;;;0.80;;
17369;SDS011;8802;52.402;4.920;2023-07-20T11:42:57;2.78;;;0.70;;
17369;SDS011;8802;52.402;4.920;2023-07-20T11:45:24;2.78;;;0.80;;
17369;SDS011;8802;52.402;4.920;2023-07-20T11:47:52;1.80;;;0.80;;
17369;SDS011;8802;52.402;4.920;2023-07-20T11:50:19;1.80;;;0.90;;
17369;SDS011;8802;52.402;4.920;2023-07-20T11:52:46;0.80;;;0.80;;
17369;SDS011;8802;52.402;4.920;2023-07-20T11:55:13;2.45;;;1.17;;
17369;SDS011;8802;52.402;4.920;2023-07-20T11:57:42;1.30;;;0.57;;
17369;SDS011;8802;52.402;4.920;2023-07-20T12:00:27;0.60;;;0.50;;
17369;SDS011;8802;52.402;4.920;2023-07-20T12:02:54;1.75;;;0.80;;
17369;SDS011;8802;52.402;4.920;2023-07-20T12:05:22;2.42;;;0.52;;
17369;SDS011;8802;52.402;4.920;2023-07-20T12:07:49;1.70;;;0.60;;
17369;SDS011;8802;52.402;4.920;2023-07-20T12:10:22;1.50;;;0.60;;
17369;SDS011;8802;52.402;4.920;2023-07-20T12:12:52;0.70;;;0.50;;
17369;SDS011;8802;52.402;4.920;2023-07-20T12:15:20;0.68;;;0.35;;
17369;SDS011;8802;52.402;4.920;2023-07-20T12:17:49;0.47;;;0.35;;
17369;SDS011;8802;52.402;4.920;2023-07-20T12:20:24;1.60;;;0.50;;
17369;SDS011;8802;52.402;4.920;2023-07-20T12:22:55;1.67;;;0.57;;
17369;SDS011;8802;52.402;4.920;2023-07-20T12:25:31;0.82;;;0.57;;
17369;SDS011;8802;52.402;4.920;2023-07-20T12:28:01;2.10;;;0.75;;
17369;SDS011;8802;52.402;4.920;2023-07-20T12:30:30;1.05;;;0.47;;
17369;SDS011;8802;52.402;4.920;2023-07-20T12:32:58;3.17;;;0.57;;
17369;SDS011;8802;52.402;4.920;2023-07-20T12:35:25;2.33;;;0.80;;
17369;SDS011;8802;52.402;4.920;2023-07-20T12:37:52;2.47;;;0.65;;
17369;SDS011;8802;52.402;4.920;2023-07-20T12:40:19;3.00;;;0.80;;
17369;SDS011;8802;52.402;4.920;2023-07-20T12:42:46;1.70;;;1.00;;
17369;SDS011;8802;52.402;4.920;2023-07-20T12:45:14;2.40;;;0.90;;
17369;SDS011;8802;52.402;4.920;2023-07-20T12:47:42;1.98;;;0.77;;
17369;SDS011;8802;52.402;4.920;2023-07-20T12:50:09;1.42;;;0.63;;
17369;SDS011;8802;52.402;4.920;2023-07-20T12:52:36;1.20;;;0.75;;
17369;SDS011;8802;52.402;4.920;2023-07-20T12:55:04;0.85;;;0.63;;
17369;SDS011;8802;52.402;4.920;2023-07-20T12:57:32;1.67;;;0.60;;
17369;SDS011;8802;52.402;4.920;2023-07-20T12:59:59;1.50;;;0.73;;
17369;SDS011;8802;52.402;4.920;2023-07-20T13:02:29;0.77;;;0.63;;
17369;SDS011;8802;52.402;4.920;2023-07-20T13:04:57;1.42;;;0.82;;
17369;SDS011;8802;52.402;4.920;2023-07-20T13:07:29;1.40;;;0.70;;
17369;SDS011;8802;52.402;4.920;2023-07-20T13:09:57;0.70;;;0.50;;
17369;SDS011;8802;52.402;4.920;2023-07-20T13:12:25;1.30;;;0.40;;
17369;SDS011;8802;52.402;4.920;2023-07-20T13:14:52;1.15;;;0.60;;
17369;SDS011;8802;52.402;4.920;2023-07-20T13:17:20;1.13;;;0.70;;
17369;SDS011;8802;52.402;4.920;2023-07-20T13:19:48;0.75;;;0.30;;
17369;SDS011;8802;52.402;4.920;2023-07-20T13:22:15;0.73;;;0.60;;
17369;SDS011;8802;52.402;4.920;2023-07-20T13:24:43;1.17;;;0.57;;
17369;SDS011;8802;52.402;4.920;2023-07-20T13:27:11;0.75;;;0.50;;
17369;SDS011;8802;52.402;4.920;2023-07-20T13:29:38;0.90;;;0.40;;
17369;SDS011;8802;52.402;4.920;2023-07-20T13:32:05;0.93;;;0.43;;
17369;SDS011;8802;52.402;4.920;2023-07-20T13:34:33;2.17;;;0.50;;
17369;SDS011;8802;52.402;4.920;2023-07-20T13:37:02;0.68;;;0.52;;
17369;SDS011;8802;52.402;4.920;2023-07-20T13:39:29;1.42;;;0.40;;
17369;SDS011;8802;52.402;4.920;2023-07-20T13:41:56;1.08;;;0.40;;
17369;SDS011;8802;52.402;4.920;2023-07-20T13:44:23;0.75;;;0.50;;
17369;SDS011;8802;52.402;4.920;2023-07-20T13:46:50;1.75;;;0.55;;
17369;SDS011;8802;52.402;4.920;2023-07-20T13:49:17;3.05;;;0.47;;
17369;SDS011;8802;52.402;4.920;2023-07-20T13:51:44;0.40;;;0.30;;
17369;SDS011;8802;52.402;4.920;2023-07-20T13:54:12;1.73;;;0.47;;
17369;SDS011;8802;52.402;4.920;2023-07-20T13:56:39;1.30;;;0.70;;
17369;SDS011;8802;52.402;4.920;2023-07-20T13:59:06;0.90;;;0.40;;
17369;SDS011;8802;52.402;4.920;2023-07-20T14:01:33;0.82;;;0.40;;
17369;SDS011;8802;52.402;4.920;2023-07-20T14:04:00;1.13;;;0.40;;
17369;SDS011;8802;52.402;4.920;2023-07-20T14:06:29;2.35;;;0.40;;
17369;SDS011;8802;52.402;4.920;2023-07-20T14:08:58;1.25;;;0.60;;
17369;SDS011;8802;52.402;4.920;2023-07-20T14:11:27;2.20;;;0.50;;
17369;SDS011;8802;52.402;4.920;2023-07-20T14:13:54;1.48;;;0.60;;
17369;SDS011;8802;52.402;4.920;2023-07-20T14:16:23;1.65;;;0.57;;
17369;SDS011;8802;52.402;4.920;2023-07-20T14:18:51;1.30;;;0.47;;
17369;SDS011;8802;52.402;4.920;2023-07-20T14:21:18;1.88;;;0.75;;
17369;SDS011;8802;52.402;4.920;2023-07-20T14:23:46;0.82;;;0.60;;
17369;SDS011;8802;52.402;4.920;2023-07-20T14:26:14;0.70;;;0.40;;
17369;SDS011;8802;52.402;4.920;2023-07-20T14:28:43;1.27;;;0.40;;
17369;SDS011;8802;52.402;4.920;2023-07-20T14:31:10;2.38;;;0.55;;
17369;SDS011;8802;52.402;4.920;2023-07-20T14:33:36;0.93;;;0.60;;
17369;SDS011;8802;52.402;4.920;2023-07-20T14:36:04;0.40;;;0.40;;
17369;SDS011;8802;52.402;4.920;2023-07-20T14:38:32;0.70;;;0.45;;
17369;SDS011;8802;52.402;4.920;2023-07-20T14:41:00;1.92;;;0.50;;
17369;SDS011;8802;52.402;4.920;2023-07-20T14:43:27;6.03;;;0.75;;
17369;SDS011;8802;52.402;4.920;2023-07-20T14:45:56;1.48;;;0.52;;
17369;SDS011;8802;52.402;4.920;2023-07-20T14:48:22;1.00;;;0.52;;
17369;SDS011;8802;52.402;4.920;2023-07-20T14:50:49;0.65;;;0.40;;
17369;SDS011;8802;52.402;4.920;2023-07-20T14:53:16;0.70;;;0.40;;
17369;SDS011;8802;52.402;4.920;2023-07-20T14:55:43;1.48;;;0.50;;
17369;SDS011;8802;52.402;4.920;2023-07-20T14:58:10;0.95;;;0.40;;
17369;SDS011;8802;52.402;4.920;2023-07-20T15:00:37;1.67;;;0.47;;
17369;SDS011;8802;52.402;4.920;2023-07-20T15:03:06;1.00;;;0.47;;
17369;SDS011;8802;52.402;4.920;2023-07-20T15:05:34;1.25;;;0.40;;
17369;SDS011;8802;52.402;4.920;2023-07-20T15:08:03;1.10;;;0.45;;
17369;SDS011;8802;52.402;4.920;2023-07-20T15:10:31;1.30;;;0.50;;
17369;SDS011;8802;52.402;4.920;2023-07-20T15:12:58;1.13;;;0.40;;
17369;SDS011;8802;52.402;4.920;2023-07-20T15:15:25;0.50;;;0.40;;